Time;durP1;ratioP1;P1;durP2;ratioP2;P2;SDS_P1;SDS_P2;PMS_P1;PMS_P2;Temp;Humidity;BMP_temperature;BMP_pressure;BME280_temperature;BME280_humidity;BME280_pressure;Samples;Min_cycle;Max_cycle;Signal;HPM_P1;HPM_P2
2024/01/01 00:01:38;;;;;;;11.10;5.03;;;;;;;6.51;88.62;147808.53;4978362;28;20238;-56
2024/01/01 00:04:05;;;;;;;15.17;4.97;;;;;;;6.62;87.36;147834.66;4977184;28;20237;-56
2024/01/01 00:06:32;;;;;;;9.97;4.80;;;;;;;6.75;86.14;147865.69;4981513;28;20237;-56
2024/01/01 00:08:58;;;;;;;8.57;4.43;;;;;;;6.72;86.57;147858.22;4971290;28;20238;-55
2024/01/01 00:11:26;;;;;;;12.33;3.73;;;;;;;6.77;85.65;147871.94;4976507;28;20248;-56
2024/01/01 00:13:53;;;;;;;10.93;4.33;;;;;;;6.82;85.20;147883.09;4975264;28;20222;-54
2024/01/01 00:16:19;;;;;;;9.03;3.90;;;;;;;6.85;85.02;147890.53;4980299;28;20260;-55
2024/01/01 00:18:47;;;;;;;11.83;3.93;;;;;;;6.91;83.70;147904.19;4975147;28;20232;-56
2024/01/01 00:21:13;;;;;;;12.40;3.87;;;;;;;6.95;83.59;147914.13;4971104;28;20229;-56
2024/01/01 00:23:40;;;;;;;9.70;3.83;;;;;;;6.94;84.82;147912.91;4971414;28;20221;-56
2024/01/01 00:26:07;;;;;;;10.97;3.20;;;;;;;6.96;84.39;147916.59;4975175;28;20673;-55
2024/01/01 00:28:35;;;;;;;9.53;4.33;;;;;;;6.93;86.34;147909.16;4977133;28;20245;-54
2024/01/01 00:31:01;;;;;;;13.57;4.63;;;;;;;6.81;90.77;147880.59;4971385;28;20249;-55
2024/01/01 00:33:28;;;;;;;9.80;4.80;;;;;;;6.64;93.17;147840.84;4976360;28;20231;-56
2024/01/01 00:35:54;;;;;;;9.07;4.40;;;;;;;6.45;97.24;147794.91;4979740;28;20224;-55
2024/01/01 00:38:21;;;;;;;13.00;6.37;;;;;;;6.34;98.90;147768.84;4975831;28;20229;-55
2024/01/01 00:40:48;;;;;;;8.80;4.53;;;;;;;6.17;99.65;147727.84;4975145;28;20232;-55
2024/01/01 00:43:14;;;;;;;12.20;4.20;;;;;;;6.05;100.00;147699.31;4977259;28;20237;-53
2024/01/01 00:45:42;;;;;;;8.13;4.20;;;;;;;6.02;100.00;147691.84;4975473;28;20221;-54
2024/01/01 00:48:09;;;;;;;7.60;3.70;;;;;;;5.98;100.00;147681.88;4978304;28;20248;-55
2024/01/01 00:50:36;;;;;;;8.53;3.33;;;;;;;5.94;100.00;147670.69;4978193;28;20621;-56
2024/01/01 00:53:03;;;;;;;7.97;3.73;;;;;;;5.90;100.00;147663.22;4974470;28;20735;-54
2024/01/01 00:55:31;;;;;;;8.17;3.30;;;;;;;5.91;100.00;147664.50;4978736;28;20232;-56
2024/01/01 00:57:58;;;;;;;8.47;2.33;;;;;;;5.96;99.92;147676.91;4973793;28;20296;-56
2024/01/01 01:00:25;;;;;;;6.33;2.47;;;;;;;6.01;97.06;147689.38;4977685;28;20368;-54
2024/01/01 01:02:53;;;;;;;5.37;2.80;;;;;;;6.03;96.98;147694.34;4955656;28;20225;-55
2024/01/01 01:05:20;;;;;;;4.47;1.80;;;;;;;6.08;95.83;147705.50;4981512;28;20232;-55
2024/01/01 01:07:47;;;;;;;6.47;2.10;;;;;;;6.10;94.67;147709.25;4975274;28;20217;-55
2024/01/01 01:10:14;;;;;;;3.27;1.90;;;;;;;6.11;94.51;147712.94;4977015;28;20230;-55
2024/01/01 01:12:41;;;;;;;4.17;1.70;;;;;;;6.17;93.55;147727.84;4972133;28;20227;-56
2024/01/01 01:15:07;;;;;;;7.83;1.53;;;;;;;6.20;93.59;147735.28;4965837;28;20234;-56
2024/01/01 01:17:34;;;;;;;5.10;1.67;;;;;;;6.19;93.30;147731.59;4977261;28;20239;-53
2024/01/01 01:20:02;;;;;;;4.47;1.40;;;;;;;6.23;94.52;147741.53;4972316;28;20229;-54
2024/01/01 01:22:29;;;;;;;2.97;1.20;;;;;;;6.17;95.03;147726.63;4963148;28;20617;-55
2024/01/01 01:24:55;;;;;;;3.93;1.27;;;;;;;6.15;96.32;147721.66;4972971;28;20229;-56
2024/01/01 01:27:22;;;;;;;2.77;1.23;;;;;;;6.22;93.71;147737.78;4977238;28;20240;-55
2024/01/01 01:29:49;;;;;;;2.30;1.20;;;;;;;6.26;94.62;147748.97;4971463;28;20222;-56
2024/01/01 01:32:16;;;;;;;6.83;1.60;;;;;;;6.31;93.41;147761.41;4981595;28;20295;-55
2024/01/01 01:34:42;;;;;;;5.97;1.70;;;;;;;6.35;92.78;147771.34;4963657;28;20272;-56
2024/01/01 01:37:11;;;;;;;3.57;1.47;;;;;;;6.35;92.86;147771.34;4976367;28;20230;-55
2024/01/01 01:39:38;;;;;;;3.07;1.20;;;;;;;6.43;94.48;147788.66;4976325;28;20244;-56
2024/01/01 01:42:05;;;;;;;5.53;1.37;;;;;;;6.28;94.47;147753.94;4959482;28;20237;-55
2024/01/01 01:44:33;;;;;;;5.07;2.03;;;;;;;6.30;95.51;147757.66;4975645;28;20236;-56
2024/01/01 01:47:00;;;;;;;5.87;1.10;;;;;;;6.30;93.81;147758.91;4981576;28;20566;-55
2024/01/01 01:49:27;;;;;;;4.13;1.00;;;;;;;6.26;95.57;147747.72;4965418;28;20261;-56
2024/01/01 01:51:55;;;;;;;7.53;1.30;;;;;;;6.26;95.77;147747.72;4980177;28;20240;-56
2024/01/01 01:54:24;;;;;;;2.67;1.10;;;;;;;6.22;95.73;147739.03;4969532;28;20229;-56
2024/01/01 01:56:53;;;;;;;4.23;1.37;;;;;;;6.21;97.07;147736.56;4981825;28;20228;-56
2024/01/01 01:59:20;;;;;;;5.33;1.43;;;;;;;6.23;94.97;147741.53;4981022;28;20233;-56
2024/01/01 02:01:47;;;;;;;5.10;1.03;;;;;;;6.32;94.35;147763.88;4978190;28;20217;-56
2024/01/01 02:04:14;;;;;;;5.77;1.30;;;;;;;6.34;94.27;147768.84;4983652;28;20238;-54
2024/01/01 02:06:41;;;;;;;7.07;1.77;;;;;;;6.43;93.23;147788.66;4979994;28;20229;-55
2024/01/01 02:09:08;;;;;;;5.57;1.17;;;;;;;6.40;94.73;147781.22;4982186;28;20320;-55
2024/01/01 02:11:36;;;;;;;7.03;1.60;;;;;;;6.40;93.98;147781.22;4984592;28;20241;-55
2024/01/01 02:14:10;;;;;;;6.17;1.40;;;;;;;6.29;96.80;147756.44;4980622;28;20587;-54
2024/01/01 02:16:37;;;;;;;5.23;1.63;;;;;;;6.28;96.95;147753.94;4981716;28;20237;-55
2024/01/01 02:19:04;;;;;;;4.67;2.07;;;;;;;6.19;97.20;147731.59;4979041;28;20676;-55
2024/01/01 02:21:31;;;;;;;5.57;1.90;;;;;;;6.16;97.16;147725.34;4982607;28;20236;-55
2024/01/01 02:23:59;;;;;;;7.67;2.83;;;;;;;6.13;97.87;147716.69;4977430;28;20700;-54
2024/01/01 02:26:25;;;;;;;6.17;1.67;;;;;;;6.12;98.94;147715.41;4979390;28;20229;-56
2024/01/01 02:28:52;;;;;;;7.87;3.30;;;;;;;6.16;97.25;147725.34;4977628;28;20701;-56
2024/01/01 02:31:19;;;;;;;6.67;2.03;;;;;;;6.19;97.18;147731.59;4984879;28;20237;-56
2024/01/01 02:33:45;;;;;;;4.77;2.73;;;;;;;6.24;95.99;147742.75;4979922;28;20228;-56
2024/01/01 02:36:12;;;;;;;4.63;2.00;;;;;;;6.24;96.73;147744.00;4980355;28;20232;-56
2024/01/01 02:38:39;;;;;;;7.90;3.70;;;;;;;6.25;95.96;147746.50;4966550;28;20221;-56
2024/01/01 02:41:07;;;;;;;4.53;1.57;;;;;;;6.28;95.74;147753.94;4963980;28;20237;-56
2024/01/01 02:43:33;;;;;;;5.83;2.73;;;;;;;6.30;94.92;147758.91;4979397;28;20233;-57
2024/01/01 02:46:00;;;;;;;4.83;2.20;;;;;;;6.34;94.02;147768.84;4977547;28;20237;-57
2024/01/01 02:48:27;;;;;;;6.03;1.83;;;;;;;6.40;93.64;147781.22;4980261;28;20304;-56
2024/01/01 02:50:53;;;;;;;4.30;1.23;;;;;;;6.46;92.49;147796.13;4964702;28;20218;-56
2024/01/01 02:53:20;;;;;;;5.83;1.07;;;;;;;6.46;92.84;147797.41;4983697;28;20707;-56
2024/01/01 02:55:47;;;;;;;6.67;1.53;;;;;;;6.43;92.89;147789.94;4964988;28;20225;-54
2024/01/01 02:58:15;;;;;;;6.03;1.20;;;;;;;6.41;92.95;147784.97;4978364;28;20543;-55
2024/01/01 03:00:42;;;;;;;7.13;1.30;;;;;;;6.45;91.59;147794.91;4980755;28;20222;-56
2024/01/01 03:03:08;;;;;;;7.53;1.20;;;;;;;6.40;93.79;147782.47;4982892;28;20618;-56
2024/01/01 03:05:35;;;;;;;6.70;1.60;;;;;;;6.48;91.65;147802.38;4984049;28;20229;-56
2024/01/01 03:08:01;;;;;;;6.97;1.30;;;;;;;6.49;92.22;147804.84;4958443;28;20329;-57
2024/01/01 03:10:28;;;;;;;7.60;1.60;;;;;;;6.50;91.73;147807.31;4980582;28;20672;-56
2024/01/01 03:12:55;;;;;;;7.30;1.33;;;;;;;6.45;93.79;147793.63;4978985;28;20232;-56
2024/01/01 03:15:23;;;;;;;6.00;1.47;;;;;;;6.42;93.60;147787.44;4977196;28;20709;-57
2024/01/01 03:17:49;;;;;;;7.07;1.10;;;;;;;6.43;92.90;147789.94;4974104;28;20241;-57
2024/01/01 03:20:16;;;;;;;8.00;1.33;;;;;;;6.40;93.61;147781.22;4977202;28;20279;-57
2024/01/01 03:22:45;;;;;;;5.40;1.50;;;;;;;6.35;94.67;147771.34;4955363;28;20745;-57
2024/01/01 03:25:11;;;;;;;5.83;1.30;;;;;;;6.29;95.03;147756.44;4983143;28;20229;-57
2024/01/01 03:27:38;;;;;;;3.37;0.73;;;;;;;6.35;93.51;147771.34;4964921;28;20231;-56
2024/01/01 03:30:06;;;;;;;6.33;1.20;;;;;;;6.41;92.14;147783.72;4962132;28;20239;-57
2024/01/01 03:32:35;;;;;;;5.87;0.97;;;;;;;6.42;92.12;147786.19;4971006;28;20227;-56
2024/01/01 03:35:02;;;;;;;3.50;1.20;;;;;;;6.37;93.24;147773.78;4975469;28;20600;-56
2024/01/01 03:37:29;;;;;;;5.30;1.10;;;;;;;6.39;91.82;147778.75;4974734;28;20241;-54
2024/01/01 03:39:55;;;;;;;4.23;1.00;;;;;;;6.42;92.21;147787.44;4976216;28;20237;-56
2024/01/01 03:42:22;;;;;;;5.80;0.90;;;;;;;6.32;92.27;147763.88;4980311;28;20229;-57
2024/01/01 03:44:49;;;;;;;7.27;1.00;;;;;;;6.30;92.25;147757.66;4963266;28;20231;-54
2024/01/01 03:47:15;;;;;;;4.77;1.00;;;;;;;6.25;91.10;147745.22;4979936;28;20242;-57
2024/01/01 03:49:43;;;;;;;10.33;1.20;;;;;;;6.23;89.98;147740.25;4972366;28;20299;-55
2024/01/01 03:52:12;;;;;;;7.63;1.67;;;;;;;6.20;90.35;147734.06;4979454;28;20233;-57
2024/01/01 03:54:40;;;;;;;10.57;0.97;;;;;;;6.16;90.25;147724.13;4964573;28;20237;-57
2024/01/01 03:57:11;;;;;;;9.13;1.20;;;;;;;6.19;89.20;147731.59;4976402;28;20230;-57
2024/01/01 03:59:38;;;;;;;7.90;1.23;;;;;;;6.26;87.73;147748.97;4977941;28;20220;-56
2024/01/01 04:04:49;;;;;;;5.57;0.97;;;;;;;6.42;87.74;147787.44;5335358;23;20693;-56
2024/01/01 04:07:16;;;;;;;4.00;0.67;;;;;;;6.44;87.40;147792.44;4996244;28;20581;-56
2024/01/01 04:09:43;;;;;;;8.90;1.30;;;;;;;6.30;89.50;147758.91;4991823;28;20229;-55
2024/01/01 04:12:10;;;;;;;5.00;1.17;;;;;;;6.24;90.02;147744.00;4995780;28;20233;-54
2024/01/01 04:14:37;;;;;;;11.97;1.00;;;;;;;6.15;90.53;147721.66;4986295;28;20246;-56
2024/01/01 04:17:04;;;;;;;8.13;1.50;;;;;;;5.99;91.11;147684.34;4977415;28;20225;-56
2024/01/01 04:19:31;;;;;;;6.07;1.20;;;;;;;5.93;92.11;147669.44;4979486;28;20220;-56
2024/01/01 04:21:59;;;;;;;9.90;1.07;;;;;;;5.82;92.51;147642.16;4974351;28;20248;-56
2024/01/01 04:24:25;;;;;;;7.93;1.00;;;;;;;5.76;93.64;147628.50;4977817;28;20307;-56
2024/01/01 04:26:52;;;;;;;8.57;1.60;;;;;;;5.75;92.37;147626.03;4973635;28;20231;-56
2024/01/01 04:29:18;;;;;;;5.13;1.03;;;;;;;5.78;92.21;147632.22;4979039;28;20681;-56
2024/01/01 04:31:46;;;;;;;7.20;1.03;;;;;;;5.95;89.41;147674.44;5170172;23;20558;-56
2024/01/01 04:34:13;;;;;;;9.40;1.63;;;;;;;5.90;89.39;147663.22;4982263;28;20659;-55
2024/01/01 04:36:40;;;;;;;3.20;0.73;;;;;;;5.90;89.25;147663.22;4979483;28;20235;-55
2024/01/01 04:39:08;;;;;;;7.43;1.33;;;;;;;5.84;88.61;147648.31;4983004;28;20566;-55
2024/01/01 04:41:36;;;;;;;11.93;1.00;;;;;;;5.85;87.59;147649.59;4979824;28;20236;-54
2024/01/01 04:44:03;;;;;;;6.40;1.07;;;;;;;5.74;89.02;147624.75;4974599;28;20768;-55
2024/01/01 04:46:29;;;;;;;4.77;0.60;;;;;;;5.75;88.53;147626.03;4982484;28;20221;-55
2024/01/01 04:48:56;;;;;;;10.37;1.20;;;;;;;5.83;87.25;147645.84;4980515;28;20224;-56
2024/01/01 04:51:22;;;;;;;6.97;1.00;;;;;;;5.86;86.67;147653.28;4979420;28;20238;-56
2024/01/01 04:53:49;;;;;;;3.60;0.63;;;;;;;5.83;87.19;147644.63;4976812;28;20232;-55
2024/01/01 04:56:17;;;;;;;6.50;1.30;;;;;;;5.95;85.72;147674.44;4978816;28;20314;-56
2024/01/01 04:58:44;;;;;;;5.83;1.00;;;;;;;5.95;87.01;147673.16;4978707;28;20232;-55
2024/01/01 05:01:10;;;;;;;4.03;1.10;;;;;;;6.04;85.39;147696.81;4980810;28;20224;-54
2024/01/01 05:03:37;;;;;;;7.43;1.07;;;;;;;6.10;84.43;147710.47;4981418;28;20229;-56
2024/01/01 05:06:04;;;;;;;8.67;1.33;;;;;;;6.16;84.72;147725.34;4979571;28;20221;-56
2024/01/01 05:08:31;;;;;;;7.20;1.30;;;;;;;6.17;83.65;147727.84;4981859;28;20224;-56
2024/01/01 05:10:58;;;;;;;5.93;1.20;;;;;;;6.28;82.39;147753.94;4979924;28;20253;-55
2024/01/01 05:13:26;;;;;;;5.83;1.00;;;;;;;6.47;80.36;147798.59;4981338;28;20224;-55
2024/01/01 05:15:52;;;;;;;8.73;1.37;;;;;;;6.45;80.99;147793.63;4975305;28;20222;-55
2024/01/01 05:18:19;;;;;;;9.77;1.20;;;;;;;6.48;80.75;147801.09;4977493;28;20537;-56
2024/01/01 05:20:45;;;;;;;8.97;1.37;;;;;;;6.46;81.29;147797.41;4981677;28;20233;-57
2024/01/01 05:23:12;;;;;;;8.73;0.90;;;;;;;6.53;80.33;147813.50;4983905;28;20218;-55
2024/01/01 05:25:39;;;;;;;14.77;1.63;;;;;;;6.53;79.03;147813.50;4982646;28;20303;-56
2024/01/01 05:28:08;;;;;;;7.43;0.90;;;;;;;6.54;79.09;147816.00;4984305;28;20731;-57
2024/01/01 05:30:36;;;;;;;8.67;1.40;;;;;;;6.62;77.22;147835.88;4985450;28;20229;-55
2024/01/01 05:33:02;;;;;;;8.83;1.10;;;;;;;6.71;77.15;147855.75;4982667;28;20248;-56
2024/01/01 05:35:29;;;;;;;9.07;1.43;;;;;;;6.72;76.94;147858.22;4987031;28;20212;-57
2024/01/01 05:37:55;;;;;;;5.97;1.07;;;;;;;6.68;77.39;147849.56;4981810;28;20307;-56
2024/01/01 05:40:22;;;;;;;5.20;1.00;;;;;;;6.63;78.43;147838.34;4965254;28;20225;-56
2024/01/01 05:42:49;;;;;;;5.77;1.13;;;;;;;6.57;79.87;147822.22;4982120;28;20237;-57
2024/01/01 05:45:16;;;;;;;7.33;0.80;;;;;;;6.46;78.57;147797.41;4983044;28;20304;-57
2024/01/01 05:47:44;;;;;;;6.30;0.80;;;;;;;6.32;80.43;147763.88;4983433;28;20222;-57
2024/01/01 05:50:10;;;;;;;5.33;1.00;;;;;;;6.36;79.59;147772.56;4983270;28;20228;-56
2024/01/01 05:52:37;;;;;;;3.27;0.97;;;;;;;6.23;81.20;147740.25;4987088;28;20229;-57
2024/01/01 05:55:04;;;;;;;6.00;0.90;;;;;;;6.35;81.38;147771.34;4980713;28;20229;-55
2024/01/01 05:57:31;;;;;;;4.17;0.90;;;;;;;6.25;82.66;147746.50;4983884;28;20237;-57
2024/01/01 05:59:58;;;;;;;9.37;1.20;;;;;;;6.06;84.68;147700.53;4983719;28;20627;-56
2024/01/01 06:02:24;;;;;;;4.53;1.13;;;;;;;5.94;86.39;147671.94;4974397;28;20723;-57
2024/01/01 06:04:54;;;;;;;10.27;0.73;;;;;;;5.81;87.40;147640.94;4980623;28;20250;-57
2024/01/01 06:07:20;;;;;;;3.57;0.50;;;;;;;5.74;88.40;147623.53;4986098;28;20235;-57
2024/01/01 06:09:47;;;;;;;11.17;1.13;;;;;;;5.65;89.54;147602.41;4982429;28;20228;-57
2024/01/01 06:12:14;;;;;;;5.27;0.90;;;;;;;5.63;89.52;147597.44;4983278;28;20319;-57
2024/01/01 06:14:40;;;;;;;6.73;0.90;;;;;;;5.54;89.97;147576.38;4981855;28;20240;-56
2024/01/01 06:17:11;;;;;;;13.03;1.37;;;;;;;5.63;89.31;147596.22;4983307;28;20228;-57
2024/01/01 06:19:37;;;;;;;4.57;1.10;;;;;;;5.73;88.24;147622.28;4984189;28;20225;-57
2024/01/01 06:22:05;;;;;;;6.77;0.73;;;;;;;5.64;88.13;147599.94;4976216;28;20244;-57
2024/01/01 06:24:32;;;;;;;5.40;0.93;;;;;;;5.56;89.62;147581.34;4984716;28;20228;-56
2024/01/01 06:26:59;;;;;;;8.17;1.20;;;;;;;5.58;90.08;147586.31;4982293;28;20754;-54
2024/01/01 06:29:27;;;;;;;5.77;0.90;;;;;;;5.47;91.06;147559.00;4986039;28;20222;-55
2024/01/01 06:31:53;;;;;;;9.10;1.20;;;;;;;5.49;90.80;147563.97;4980830;28;20303;-56
2024/01/01 06:34:20;;;;;;;3.53;1.00;;;;;;;5.49;91.37;147562.69;4985791;28;20225;-56
2024/01/01 06:36:47;;;;;;;7.27;1.00;;;;;;;5.54;90.45;147576.38;4982355;28;20221;-57
2024/01/01 06:39:15;;;;;;;5.87;0.80;;;;;;;5.61;90.17;147592.47;4981937;28;20217;-55
2024/01/01 06:41:42;;;;;;;4.23;0.97;;;;;;;5.68;89.82;147609.88;4979595;28;20712;-54
2024/01/01 06:44:08;;;;;;;5.97;1.60;;;;;;;5.75;90.28;147626.03;4982349;28;20244;-55
2024/01/01 06:46:35;;;;;;;9.33;1.10;;;;;;;5.87;88.78;147654.56;4982693;28;20222;-56
2024/01/01 06:49:01;;;;;;;7.37;1.10;;;;;;;5.88;90.17;147657.03;4980551;28;20237;-57
2024/01/01 06:51:28;;;;;;;7.73;1.20;;;;;;;5.85;90.05;147649.59;4980692;28;20229;-55
2024/01/01 06:53:55;;;;;;;3.57;0.87;;;;;;;5.82;89.86;147643.41;4978197;28;20216;-57
2024/01/01 06:56:22;;;;;;;3.63;0.80;;;;;;;5.93;88.60;147668.19;4982061;28;20221;-57
2024/01/01 06:58:49;;;;;;;7.17;1.00;;;;;;;5.98;88.10;147681.88;4978698;28;20573;-56
2024/01/01 07:01:16;;;;;;;11.17;1.33;;;;;;;6.09;86.93;147706.75;4985206;28;20225;-55
2024/01/01 07:03:42;;;;;;;9.40;0.83;;;;;;;6.16;86.06;147725.34;4979191;28;20232;-56
2024/01/01 07:06:09;;;;;;;6.27;0.93;;;;;;;6.17;86.08;147726.63;4983270;28;20230;-53
2024/01/01 07:08:36;;;;;;;7.20;1.03;;;;;;;6.18;86.42;147730.31;4983801;28;20720;-56
2024/01/01 07:11:02;;;;;;;5.67;0.80;;;;;;;6.18;86.58;147729.09;4979034;28;20242;-55
2024/01/01 07:13:30;;;;;;;11.33;1.23;;;;;;;6.13;88.42;147716.69;4983667;28;20213;-55
2024/01/01 07:15:58;;;;;;;7.90;1.03;;;;;;;6.08;88.62;147705.50;4980718;28;20233;-56
2024/01/01 07:18:24;;;;;;;6.23;1.10;;;;;;;6.03;88.92;147694.34;4984066;28;20766;-57
2024/01/01 07:20:51;;;;;;;6.80;1.07;;;;;;;6.06;89.97;147700.53;4981152;28;20232;-55
2024/01/01 07:23:18;;;;;;;7.90;1.33;;;;;;;6.00;90.66;147686.88;4981190;28;20221;-56
2024/01/01 07:25:44;;;;;;;10.47;1.33;;;;;;;5.95;90.94;147673.16;4979283;28;20221;-56
2024/01/01 07:28:11;;;;;;;4.30;1.00;;;;;;;5.93;91.24;147668.19;4979806;28;20233;-56
2024/01/01 07:30:39;;;;;;;10.57;1.00;;;;;;;5.93;91.76;147668.19;4980692;28;20747;-56
2024/01/01 07:33:06;;;;;;;6.97;1.00;;;;;;;5.87;92.03;147655.78;4982154;28;20242;-56
2024/01/01 07:35:32;;;;;;;7.03;0.93;;;;;;;5.79;92.50;147634.69;4982780;28;20225;-54
2024/01/01 07:38:00;;;;;;;13.90;1.93;;;;;;;5.67;93.67;147607.38;4977742;28;20241;-57
2024/01/01 07:40:27;;;;;;;9.17;0.93;;;;;;;5.71;93.11;147617.31;4983557;28;20576;-56
2024/01/01 07:42:55;;;;;;;6.67;1.07;;;;;;;5.82;92.04;147642.16;4980546;28;20780;-56
2024/01/01 07:45:22;;;;;;;6.97;1.13;;;;;;;5.93;91.39;147669.44;4982129;28;20300;-57
2024/01/01 07:47:49;;;;;;;5.17;0.90;;;;;;;6.03;90.05;147694.34;4978748;28;20229;-57
2024/01/01 07:50:16;;;;;;;8.07;1.30;;;;;;;6.11;89.59;147711.72;4984936;28;20235;-56
2024/01/01 07:52:43;;;;;;;6.23;0.87;;;;;;;6.12;89.85;147715.41;4980217;28;20228;-55
2024/01/01 07:55:11;;;;;;;5.53;1.13;;;;;;;6.19;89.66;147731.59;4983417;28;20229;-56
2024/01/01 07:57:38;;;;;;;6.93;1.07;;;;;;;6.18;89.29;147730.31;4982200;28;20229;-56
2024/01/01 08:00:07;;;;;;;4.40;1.00;;;;;;;6.20;89.43;147735.28;4981421;28;20301;-55
2024/01/01 08:02:33;;;;;;;6.67;1.30;;;;;;;6.21;88.50;147736.56;4973889;28;20233;-55
2024/01/01 08:05:01;;;;;;;4.33;1.07;;;;;;;6.22;88.85;147739.03;4977125;28;20232;-54
2024/01/01 08:07:28;;;;;;;8.37;0.90;;;;;;;6.17;89.93;147727.84;4981286;28;20611;-57
2024/01/01 08:09:55;;;;;;;2.80;0.60;;;;;;;6.23;88.67;147740.25;4978117;28;20225;-56
2024/01/01 08:12:21;;;;;;;7.87;0.83;;;;;;;6.22;89.01;147737.78;4975210;28;20225;-55
2024/01/01 08:14:48;;;;;;;3.07;0.60;;;;;;;6.22;88.86;147739.03;4978985;28;20754;-57
2024/01/01 08:17:15;;;;;;;8.00;0.70;;;;;;;6.22;87.55;147737.78;4983578;28;20225;-56
2024/01/01 08:19:41;;;;;;;5.00;1.33;;;;;;;6.18;87.90;147729.09;4979035;28;20228;-56
2024/01/01 08:22:12;;;;;;;4.03;0.93;;;;;;;6.27;86.84;147751.47;4981845;28;20231;-56
2024/01/01 08:24:38;;;;;;;4.17;0.83;;;;;;;6.28;87.35;147752.69;4977609;28;20221;-56
2024/01/01 08:27:06;;;;;;;5.00;1.13;;;;;;;6.37;86.33;147773.78;4982155;28;20237;-56
2024/01/01 08:29:33;;;;;;;5.33;0.90;;;;;;;6.38;86.61;147776.25;4980223;28;20221;-56
2024/01/01 08:31:59;;;;;;;3.77;0.80;;;;;;;6.46;85.60;147796.13;4979866;28;20572;-54
2024/01/01 08:34:28;;;;;;;7.17;1.00;;;;;;;6.48;85.94;147802.38;4979778;28;20213;-55
2024/01/01 08:36:55;;;;;;;6.77;0.70;;;;;;;6.55;84.46;147818.47;4978917;28;20248;-56
2024/01/01 08:39:24;;;;;;;4.30;0.57;;;;;;;6.59;85.65;147828.41;4982537;28;20249;-56
2024/01/01 08:41:50;;;;;;;5.33;0.90;;;;;;;6.64;84.63;147839.63;4976961;28;20235;-54
2024/01/01 08:44:17;;;;;;;6.70;0.83;;;;;;;6.65;84.37;147843.31;4982639;28;20229;-55
2024/01/01 08:46:43;;;;;;;2.20;0.70;;;;;;;6.58;83.17;147825.94;4975628;28;20222;-56
2024/01/01 08:49:10;;;;;;;5.33;1.03;;;;;;;6.63;83.33;147838.34;4980576;28;20248;-57
2024/01/01 08:51:37;;;;;;;3.43;1.10;;;;;;;6.64;84.32;147839.63;4982209;28;20569;-57
2024/01/01 08:54:05;;;;;;;3.47;0.70;;;;;;;6.77;84.76;147871.94;4977656;28;20619;-55
2024/01/01 08:56:33;;;;;;;3.77;0.93;;;;;;;6.73;84.37;147862.00;4983268;28;20230;-53
2024/01/01 08:59:00;;;;;;;7.63;0.80;;;;;;;6.84;83.87;147886.84;4978374;28;20228;-56
2024/01/01 09:01:27;;;;;;;6.30;1.07;;;;;;;6.87;82.80;147895.50;4982993;28;20328;-55
2024/01/01 09:03:56;;;;;;;2.40;0.70;;;;;;;6.92;82.00;147906.66;4978652;28;20806;-56
2024/01/01 09:06:23;;;;;;;5.53;0.90;;;;;;;6.98;81.36;147921.56;4983195;28;20225;-56
2024/01/01 09:08:49;;;;;;;6.07;0.93;;;;;;;6.92;82.84;147906.66;4979978;28;20224;-56
2024/01/01 09:11:16;;;;;;;6.27;0.70;;;;;;;6.76;83.54;147869.44;4979730;28;20253;-56
2024/01/01 09:13:44;;;;;;;9.73;4.03;;;;;;;6.73;83.77;147860.72;4976968;28;20222;-55
2024/01/01 09:16:10;;;;;;;14.60;6.93;;;;;;;6.80;82.19;147878.13;4981793;28;20225;-56
2024/01/01 09:18:37;;;;;;;16.90;9.67;;;;;;;6.89;82.81;147900.47;4982723;28;20228;-54
2024/01/01 09:21:05;;;;;;;6.80;1.00;;;;;;;6.92;82.06;147907.94;4979474;28;20241;-55
2024/01/01 09:23:32;;;;;;;7.07;1.03;;;;;;;6.98;79.11;147921.56;4979218;28;20321;-53
2024/01/01 09:25:59;;;;;;;6.57;0.90;;;;;;;6.89;80.69;147900.47;4980305;28;20237;-53
2024/01/01 09:28:26;;;;;;;12.57;9.90;;;;;;;6.81;81.98;147879.38;4982168;28;20269;-56
2024/01/01 09:30:55;;;;;;;6.07;1.50;;;;;;;6.79;81.06;147876.91;4975575;28;20731;-55
2024/01/01 09:33:21;;;;;;;5.50;0.90;;;;;;;6.84;79.80;147886.84;4981865;28;20225;-55
2024/01/01 09:35:48;;;;;;;7.20;1.50;;;;;;;6.81;80.34;147879.38;4980362;28;20233;-55
2024/01/01 09:38:15;;;;;;;10.00;1.47;;;;;;;6.81;81.41;147879.38;4983949;28;20217;-53
2024/01/01 09:40:41;;;;;;;7.90;1.13;;;;;;;6.94;80.36;147912.91;4980115;28;20226;-56
2024/01/01 09:43:08;;;;;;;6.43;1.30;;;;;;;7.04;79.18;147936.47;4982911;28;20283;-55
2024/01/01 09:45:37;;;;;;;8.40;1.07;;;;;;;6.98;78.93;147920.34;4980294;28;20220;-54
2024/01/01 09:48:06;;;;;;;6.13;1.37;;;;;;;7.09;78.49;147947.69;4977378;28;20229;-55
2024/01/01 09:50:33;;;;;;;9.20;2.00;;;;;;;7.08;77.27;147946.44;4980352;28;20236;-53
2024/01/01 09:53:00;;;;;;;9.23;1.30;;;;;;;7.27;76.74;147989.94;4977343;28;20233;-56
2024/01/01 09:55:26;;;;;;;7.77;1.07;;;;;;;7.27;76.73;147989.94;4982800;28;20261;-53
2024/01/01 09:57:53;;;;;;;7.90;1.10;;;;;;;7.12;77.38;147955.16;4981303;28;20236;-56
2024/01/01 10:00:21;;;;;;;8.13;1.50;;;;;;;7.20;75.72;147973.78;4982416;28;20229;-55
2024/01/01 10:02:48;;;;;;;6.83;1.40;;;;;;;7.16;76.92;147963.81;4979174;28;20691;-56
2024/01/01 10:05:17;;;;;;;9.67;1.50;;;;;;;7.31;76.71;147999.88;4981478;28;20313;-56
2024/01/01 10:07:47;;;;;;;7.80;1.67;;;;;;;7.34;74.70;148008.56;4982507;28;20236;-56
2024/01/01 10:10:27;;;;;;;10.03;1.30;;;;;;;7.34;75.14;148008.56;4985312;28;20233;-55
2024/01/01 10:12:53;;;;;;;11.70;1.70;;;;;;;7.45;77.55;148034.63;4982882;28;20286;-56
2024/01/01 10:15:21;;;;;;;9.17;1.40;;;;;;;7.47;74.44;148038.41;4982765;28;20217;-56
2024/01/01 10:17:48;;;;;;;5.40;1.73;;;;;;;7.41;75.85;148024.75;4980997;28;20217;-55
2024/01/01 10:20:19;;;;;;;6.90;1.17;;;;;;;7.53;74.82;148054.53;4985311;28;20828;-55
2024/01/01 10:22:46;;;;;;;10.03;1.63;;;;;;;7.61;75.71;148073.19;4979621;28;20217;-56
2024/01/01 10:25:14;;;;;;;9.77;2.10;;;;;;;7.58;75.77;148065.75;4983552;28;20252;-55
2024/01/01 10:27:43;;;;;;;13.07;2.20;;;;;;;7.62;75.13;148074.41;4981487;28;20224;-55
2024/01/01 10:30:11;;;;;;;5.83;1.10;;;;;;;7.77;73.83;148111.72;4985106;28;20684;-54
2024/01/01 10:32:40;;;;;;;6.43;2.30;;;;;;;7.68;75.17;148090.59;4983777;23;20243;-55
2024/01/01 10:35:09;;;;;;;10.80;2.40;;;;;;;7.57;75.69;148061.97;4959024;28;20246;-56
2024/01/01 10:37:38;;;;;;;7.23;1.53;;;;;;;7.56;76.91;148059.50;4958430;28;20232;-56
2024/01/01 10:40:06;;;;;;;6.77;1.03;;;;;;;7.52;75.23;148050.81;4962151;28;20245;-56
2024/01/01 10:42:34;;;;;;;5.93;1.40;;;;;;;7.45;77.52;148034.63;4972923;28;20236;-53
2024/01/01 10:45:03;;;;;;;8.97;1.53;;;;;;;7.43;75.11;148029.66;4978670;28;20324;-55
2024/01/01 10:47:30;;;;;;;8.73;1.42;;;;;;;7.57;73.57;148061.97;4978099;28;20967;-55
2024/01/01 10:50:12;;;;;;;6.83;2.40;;;;;;;7.42;75.85;148025.97;4977391;28;20216;-54
2024/01/01 10:52:54;;;;;;;5.67;1.20;;;;;;;7.61;74.75;148073.19;4975969;28;20749;-55
2024/01/01 10:55:43;;;;;;;12.47;3.70;;;;;;;7.61;75.79;148073.19;4980901;28;20221;-52
2024/01/01 10:58:23;;;;;;;6.80;2.40;;;;;;;7.64;77.01;148079.38;4976448;28;20245;-55
2024/01/01 11:01:02;;;;;;;9.20;2.37;;;;;;;7.47;77.39;148039.63;4976791;28;20228;-53
2024/01/01 11:03:31;;;;;;;11.73;2.10;;;;;;;7.51;77.67;148049.56;4981575;28;20225;-53
2024/01/01 11:05:58;;;;;;;9.17;1.40;;;;;;;7.57;76.63;148061.97;4977188;28;20241;-54
2024/01/01 11:08:29;;;;;;;9.80;2.53;;;;;;;7.46;77.34;148035.91;4979576;28;20229;-55
2024/01/01 11:10:56;;;;;;;7.80;1.67;;;;;;;7.54;78.11;148055.78;4976996;28;20325;-55
2024/01/01 11:13:54;;;;;;;7.13;1.37;;;;;;;7.68;76.45;148090.59;4982242;28;20229;-53
2024/01/01 11:16:21;;;;;;;8.00;2.20;;;;;;;7.59;77.54;148068.22;4977114;28;20222;-53
2024/01/01 11:18:48;;;;;;;6.13;1.10;;;;;;;7.68;79.77;148090.59;4978164;28;20229;-56
2024/01/01 11:21:30;;;;;;;10.73;1.53;;;;;;;7.39;80.83;148019.78;4982521;28;20736;-55
2024/01/01 11:24:01;;;;;;;9.57;2.00;;;;;;;7.49;81.61;148044.59;4975943;28;20707;-55
2024/01/01 11:26:30;;;;;;;6.83;1.57;;;;;;;7.51;79.60;148049.56;4979328;28;20702;-54
2024/01/01 11:28:58;;;;;;;9.27;1.30;;;;;;;7.48;80.12;148042.09;4976122;28;20307;-53
2024/01/01 11:31:26;;;;;;;11.90;1.63;;;;;;;7.46;80.22;148037.13;4968455;28;20225;-52
2024/01/01 11:34:03;;;;;;;9.10;1.20;;;;;;;7.50;80.46;148045.84;4976206;28;20236;-53
2024/01/01 11:36:30;;;;;;;6.53;1.30;;;;;;;7.64;79.52;148079.38;4979399;28;20320;-56